Indianapolis, Indiana
Traffic Map
Current Weather Conditions
Indianapolis, Indiana
Scattered Clouds
Scattered Clouds
14°
Feels Like: 14°
Wind Chill: 14° Ceiling: Unl
Heat Index: 14° Visibility: 10mi
Dew Point: 12° Wind: 12mph
Humidity: 89% Direction: 200° (SSW)
Pressure: 29.76in Gusts: 0mph
Raw Report DataKIND 230954Z 20010KT 10SM FEW030 SCT250 14/12 A2976 RMK AO2 SLP073 T01390122
Traffic Incident Summary
Active as of:
Severity:
Category:
InformationThere was an issue retrieving the traffic information for this location. Please try a different location or try again shortly.
Advertisements
Track Severe Weather on mobile